Bonaire, GA

5:50 PM EDT on June 02, 2015 (GMT -0400)
King's Crossing | | Change Station
CLOSE
Current Station
Personal Weather Station
Location: Bonaire, GA
Elevation: 374 ft
Nearby Weather Stations

Elev 374 ft 32.56 °N, 83.61 °W | Updated 29 seconds ago

Mostly Cloudy
Mostly Cloudy
81.0 °F
Feels Like 85 °F
N
0.0
Wind Variable Wind from East
Gusts 0.0 mph

Today
High -- | Low -- °F
--% Chance of Precip.
Yesterday
High -- | Low -- °F
Precip. -- in
6:27 AM 8:37 PM
Full, 100% visible
Pressure 29.91 in
Visibility 10.0 miles
Clouds Scattered Clouds 4200 ft
Scattered Clouds 5000 ft
Mostly Cloudy 6500 ft
Mostly Cloudy 12000 ft
Heat Index 85 °F
Dew Point 71 °F
Humidity 72%
Rainfall 0.00 in
Snow Depth Not available.
UV 0.0 out of 12
Pollen .60 out of 12
Air Quality Not available.
Flu Activity Sporadic
METAR KWRB 022058Z AUTO 17007KT 10SM SCT042 SCT050 BKN065 BKN120 30/21 A2991 RMK AO2 SLP128 60000 T02960210 57023

More Conditions Fewer Conditions

Pressure 29.91 in
Visibility 10.0 miles
Clouds Scattered Clouds 4200 ft
Scattered Clouds 5000 ft
Mostly Cloudy 6500 ft
Mostly Cloudy 12000 ft
Heat Index 85 °F
Dew Point 71 °F
Humidity 72%
Rainfall 0.00 in
Snow Depth Not available.
UV 0.0 out of 12
Pollen .60 out of 12
Air Quality Not available.
Flu Activity Sporadic
METAR KWRB 022058Z AUTO 17007KT 10SM SCT042 SCT050 BKN065 BKN120 30/21 A2991 RMK AO2 SLP128 60000 T02960210 57023

More Conditions Fewer Conditions

10-Day Weather Forecast

×

Almanac

Astronomy

Jun. 02, 2015 Rise Set
Actual Time
Civil Twilight
Nautical Twilight
Astronomical Twilight
Moon
Length of Visible Light
Length of Day
Tomorrow will be .
, % of the Moon is Illuminated

Today's Extremes

State Highs State Lows

Community

WunderPhotos

Upload Photos

1,826,032 photos uploaded!

WunderBlogs® & News

Nearby

Air Quality

  Air Quality AQ Index Pollutant
Not available.

Snow Depth

Station Depth Elevation

Earthquake Activity

City Distance Mag. Time & Date
Minimum magnitude displayed is 2.5.

Coastal Water Temperatures

Place Temperature

Stations

Nearby Weather Stations

Station Location Temp. Windchill Dew Point Humidity Wind Precip. Elev Updated Type